sensor_id;sensor_type;location;lat;lon;timestamp;P1;durP1;ratioP1;P2;durP2;ratioP2
14903;SDS011;7543;53.148;8.234;2023-03-25T00:01:52;3.17;;;1.60;;
14903;SDS011;7543;53.148;8.234;2023-03-25T00:04:22;3.53;;;1.13;;
14903;SDS011;7543;53.148;8.234;2023-03-25T00:06:53;3.70;;;1.00;;
14903;SDS011;7543;53.148;8.234;2023-03-25T00:09:21;4.67;;;1.20;;
14903;SDS011;7543;53.148;8.234;2023-03-25T00:11:50;4.53;;;1.30;;
14903;SDS011;7543;53.148;8.234;2023-03-25T00:14:18;6.40;;;1.33;;
14903;SDS011;7543;53.148;8.234;2023-03-25T00:16:46;2.30;;;1.17;;
14903;SDS011;7543;53.148;8.234;2023-03-25T00:19:18;5.40;;;1.50;;
14903;SDS011;7543;53.148;8.234;2023-03-25T00:21:49;3.17;;;0.80;;
14903;SDS011;7543;53.148;8.234;2023-03-25T00:24:17;3.20;;;1.20;;
14903;SDS011;7543;53.148;8.234;2023-03-25T00:26:46;3.13;;;1.03;;
14903;SDS011;7543;53.148;8.234;2023-03-25T00:29:15;2.07;;;1.00;;
14903;SDS011;7543;53.148;8.234;2023-03-25T00:31:43;4.87;;;1.30;;
14903;SDS011;7543;53.148;8.234;2023-03-25T00:34:12;3.37;;;1.30;;
14903;SDS011;7543;53.148;8.234;2023-03-25T00:36:40;4.80;;;1.53;;
14903;SDS011;7543;53.148;8.234;2023-03-25T00:39:11;1.97;;;1.20;;
14903;SDS011;7543;53.148;8.234;2023-03-25T00:41:39;2.90;;;1.10;;
14903;SDS011;7543;53.148;8.234;2023-03-25T00:44:09;4.27;;;1.57;;
14903;SDS011;7543;53.148;8.234;2023-03-25T00:46:40;4.50;;;1.20;;
14903;SDS011;7543;53.148;8.234;2023-03-25T00:49:08;4.97;;;1.20;;
14903;SDS011;7543;53.148;8.234;2023-03-25T00:51:38;3.30;;;1.43;;
14903;SDS011;7543;53.148;8.234;2023-03-25T00:54:06;4.93;;;1.37;;
14903;SDS011;7543;53.148;8.234;2023-03-25T00:56:37;2.47;;;1.20;;
14903;SDS011;7543;53.148;8.234;2023-03-25T00:59:08;2.10;;;0.90;;
14903;SDS011;7543;53.148;8.234;2023-03-25T01:01:37;3.27;;;1.50;;
14903;SDS011;7543;53.148;8.234;2023-03-25T01:04:06;3.00;;;1.20;;
14903;SDS011;7543;53.148;8.234;2023-03-25T01:06:38;3.90;;;1.20;;
14903;SDS011;7543;53.148;8.234;2023-03-25T01:09:10;2.53;;;1.20;;
14903;SDS011;7543;53.148;8.234;2023-03-25T01:11:44;3.53;;;1.10;;
14903;SDS011;7543;53.148;8.234;2023-03-25T01:14:14;2.33;;;1.07;;
14903;SDS011;7543;53.148;8.234;2023-03-25T01:16:44;2.67;;;1.30;;
14903;SDS011;7543;53.148;8.234;2023-03-25T01:19:13;3.50;;;1.33;;
14903;SDS011;7543;53.148;8.234;2023-03-25T01:21:41;3.70;;;1.40;;
14903;SDS011;7543;53.148;8.234;2023-03-25T01:24:11;3.67;;;1.20;;
14903;SDS011;7543;53.148;8.234;2023-03-25T01:26:41;5.53;;;1.90;;
14903;SDS011;7543;53.148;8.234;2023-03-25T01:29:13;5.70;;;1.90;;
14903;SDS011;7543;53.148;8.234;2023-03-25T01:31:42;5.63;;;1.73;;
14903;SDS011;7543;53.148;8.234;2023-03-25T01:34:11;7.30;;;1.80;;
14903;SDS011;7543;53.148;8.234;2023-03-25T01:36:40;3.37;;;1.37;;
14903;SDS011;7543;53.148;8.234;2023-03-25T01:39:12;5.47;;;1.90;;
14903;SDS011;7543;53.148;8.234;2023-03-25T01:41:44;3.33;;;1.90;;
14903;SDS011;7543;53.148;8.234;2023-03-25T01:47:15;3.73;;;1.90;;
14903;SDS011;7543;53.148;8.234;2023-03-25T01:49:43;4.60;;;1.70;;
14903;SDS011;7543;53.148;8.234;2023-03-25T01:52:15;4.43;;;1.73;;
14903;SDS011;7543;53.148;8.234;2023-03-25T01:54:45;2.47;;;1.63;;
14903;SDS011;7543;53.148;8.234;2023-03-25T01:57:16;2.23;;;1.70;;
14903;SDS011;7543;53.148;8.234;2023-03-25T01:59:46;5.10;;;2.07;;
14903;SDS011;7543;53.148;8.234;2023-03-25T02:02:15;4.03;;;1.90;;
14903;SDS011;7543;53.148;8.234;2023-03-25T02:04:46;4.43;;;1.70;;
14903;SDS011;7543;53.148;8.234;2023-03-25T02:07:17;2.77;;;1.93;;
14903;SDS011;7543;53.148;8.234;2023-03-25T02:09:45;2.00;;;1.60;;
14903;SDS011;7543;53.148;8.234;2023-03-25T02:12:16;4.23;;;1.87;;
14903;SDS011;7543;53.148;8.234;2023-03-25T02:14:45;6.63;;;1.80;;
14903;SDS011;7543;53.148;8.234;2023-03-25T02:17:15;3.90;;;1.60;;
14903;SDS011;7543;53.148;8.234;2023-03-25T02:19:58;7.57;;;1.70;;
14903;SDS011;7543;53.148;8.234;2023-03-25T02:22:49;2.20;;;1.50;;
14903;SDS011;7543;53.148;8.234;2023-03-25T02:25:35;5.33;;;1.77;;
14903;SDS011;7543;53.148;8.234;2023-03-25T02:28:15;4.00;;;1.80;;
14903;SDS011;7543;53.148;8.234;2023-03-25T02:31:03;4.20;;;1.57;;
14903;SDS011;7543;53.148;8.234;2023-03-25T02:33:45;5.73;;;1.50;;
14903;SDS011;7543;53.148;8.234;2023-03-25T02:36:43;3.53;;;1.70;;
14903;SDS011;7543;53.148;8.234;2023-03-25T02:39:31;4.27;;;1.47;;
14903;SDS011;7543;53.148;8.234;2023-03-25T02:42:05;3.77;;;1.77;;
14903;SDS011;7543;53.148;8.234;2023-03-25T02:44:39;4.23;;;1.87;;
14903;SDS011;7543;53.148;8.234;2023-03-25T02:47:16;5.03;;;2.07;;
14903;SDS011;7543;53.148;8.234;2023-03-25T02:49:47;2.30;;;1.60;;
14903;SDS011;7543;53.148;8.234;2023-03-25T02:52:19;6.23;;;1.97;;
14903;SDS011;7543;53.148;8.234;2023-03-25T02:54:51;3.93;;;1.60;;
14903;SDS011;7543;53.148;8.234;2023-03-25T02:57:24;7.90;;;2.20;;
14903;SDS011;7543;53.148;8.234;2023-03-25T02:59:55;3.87;;;1.80;;
14903;SDS011;7543;53.148;8.234;2023-03-25T03:02:25;3.43;;;1.50;;
14903;SDS011;7543;53.148;8.234;2023-03-25T03:04:58;3.93;;;1.57;;
14903;SDS011;7543;53.148;8.234;2023-03-25T03:07:28;3.93;;;1.60;;
14903;SDS011;7543;53.148;8.234;2023-03-25T03:10:02;4.13;;;1.50;;
14903;SDS011;7543;53.148;8.234;2023-03-25T03:12:40;4.00;;;1.40;;
14903;SDS011;7543;53.148;8.234;2023-03-25T03:15:22;4.73;;;1.97;;
14903;SDS011;7543;53.148;8.234;2023-03-25T03:17:59;2.20;;;1.63;;
14903;SDS011;7543;53.148;8.234;2023-03-25T03:20:36;4.13;;;1.60;;
14903;SDS011;7543;53.148;8.234;2023-03-25T03:23:08;2.73;;;1.80;;
14903;SDS011;7543;53.148;8.234;2023-03-25T03:25:43;3.30;;;1.87;;
14903;SDS011;7543;53.148;8.234;2023-03-25T03:28:14;4.70;;;2.10;;
14903;SDS011;7543;53.148;8.234;2023-03-25T03:30:51;5.43;;;1.73;;
14903;SDS011;7543;53.148;8.234;2023-03-25T03:33:23;2.70;;;1.60;;
14903;SDS011;7543;53.148;8.234;2023-03-25T03:35:55;3.87;;;1.50;;
14903;SDS011;7543;53.148;8.234;2023-03-25T03:38:28;1.80;;;1.47;;
14903;SDS011;7543;53.148;8.234;2023-03-25T03:41:03;5.63;;;1.70;;
14903;SDS011;7543;53.148;8.234;2023-03-25T03:43:34;4.20;;;1.50;;
14903;SDS011;7543;53.148;8.234;2023-03-25T03:46:07;5.07;;;1.63;;
14903;SDS011;7543;53.148;8.234;2023-03-25T03:48:40;2.13;;;1.40;;
14903;SDS011;7543;53.148;8.234;2023-03-25T03:51:12;3.10;;;1.30;;
14903;SDS011;7543;53.148;8.234;2023-03-25T03:53:45;3.33;;;1.53;;
14903;SDS011;7543;53.148;8.234;2023-03-25T03:56:18;5.50;;;1.53;;
14903;SDS011;7543;53.148;8.234;2023-03-25T03:58:49;1.97;;;1.17;;
14903;SDS011;7543;53.148;8.234;2023-03-25T04:01:21;3.40;;;1.60;;
14903;SDS011;7543;53.148;8.234;2023-03-25T04:03:56;3.97;;;1.40;;
14903;SDS011;7543;53.148;8.234;2023-03-25T04:06:28;4.53;;;1.30;;
14903;SDS011;7543;53.148;8.234;2023-03-25T04:09:02;5.03;;;1.63;;
14903;SDS011;7543;53.148;8.234;2023-03-25T04:11:36;4.23;;;1.43;;
14903;SDS011;7543;53.148;8.234;2023-03-25T04:14:07;6.03;;;1.50;;
14903;SDS011;7543;53.148;8.234;2023-03-25T04:16:36;5.53;;;1.60;;
14903;SDS011;7543;53.148;8.234;2023-03-25T04:19:05;4.83;;;1.80;;
14903;SDS011;7543;53.148;8.234;2023-03-25T04:21:35;4.30;;;1.80;;
14903;SDS011;7543;53.148;8.234;2023-03-25T04:24:03;2.90;;;2.00;;
14903;SDS011;7543;53.148;8.234;2023-03-25T04:26:33;3.53;;;1.77;;
14903;SDS011;7543;53.148;8.234;2023-03-25T04:29:03;3.30;;;1.67;;
14903;SDS011;7543;53.148;8.234;2023-03-25T04:31:33;5.13;;;2.10;;
14903;SDS011;7543;53.148;8.234;2023-03-25T04:34:01;6.23;;;2.20;;
14903;SDS011;7543;53.148;8.234;2023-03-25T04:36:30;5.23;;;2.77;;
14903;SDS011;7543;53.148;8.234;2023-03-25T04:39:03;6.87;;;2.10;;
14903;SDS011;7543;53.148;8.234;2023-03-25T04:41:33;4.13;;;1.70;;
14903;SDS011;7543;53.148;8.234;2023-03-25T04:44:02;4.97;;;1.87;;
14903;SDS011;7543;53.148;8.234;2023-03-25T04:46:33;4.30;;;1.67;;
14903;SDS011;7543;53.148;8.234;2023-03-25T04:49:02;8.07;;;1.87;;
14903;SDS011;7543;53.148;8.234;2023-03-25T04:51:31;8.27;;;2.03;;
14903;SDS011;7543;53.148;8.234;2023-03-25T04:54:00;6.07;;;1.93;;
14903;SDS011;7543;53.148;8.234;2023-03-25T04:56:29;7.90;;;2.07;;
14903;SDS011;7543;53.148;8.234;2023-03-25T04:58:57;5.60;;;1.90;;
14903;SDS011;7543;53.148;8.234;2023-03-25T05:01:27;4.43;;;1.80;;
14903;SDS011;7543;53.148;8.234;2023-03-25T05:03:57;6.07;;;1.93;;
14903;SDS011;7543;53.148;8.234;2023-03-25T05:06:31;5.50;;;2.00;;
14903;SDS011;7543;53.148;8.234;2023-03-25T05:09:00;2.03;;;1.50;;
14903;SDS011;7543;53.148;8.234;2023-03-25T05:11:30;3.83;;;1.60;;
14903;SDS011;7543;53.148;8.234;2023-03-25T05:14:00;4.53;;;1.83;;
14903;SDS011;7543;53.148;8.234;2023-03-25T05:16:30;4.80;;;2.00;;
14903;SDS011;7543;53.148;8.234;2023-03-25T05:18:58;4.47;;;2.00;;
14903;SDS011;7543;53.148;8.234;2023-03-25T05:21:26;4.27;;;1.83;;
14903;SDS011;7543;53.148;8.234;2023-03-25T05:23:55;4.47;;;1.80;;
14903;SDS011;7543;53.148;8.234;2023-03-25T05:26:24;4.73;;;2.17;;
14903;SDS011;7543;53.148;8.234;2023-03-25T05:28:55;5.30;;;1.87;;
14903;SDS011;7543;53.148;8.234;2023-03-25T05:31:27;4.33;;;1.87;;
14903;SDS011;7543;53.148;8.234;2023-03-25T05:33:57;6.73;;;1.97;;
14903;SDS011;7543;53.148;8.234;2023-03-25T05:36:25;2.90;;;1.40;;
14903;SDS011;7543;53.148;8.234;2023-03-25T05:38:55;3.60;;;1.50;;
14903;SDS011;7543;53.148;8.234;2023-03-25T05:41:25;7.10;;;1.90;;
14903;SDS011;7543;53.148;8.234;2023-03-25T05:43:59;4.93;;;1.73;;
14903;SDS011;7543;53.148;8.234;2023-03-25T05:46:27;7.23;;;2.00;;
14903;SDS011;7543;53.148;8.234;2023-03-25T05:48:57;6.10;;;1.97;;
14903;SDS011;7543;53.148;8.234;2023-03-25T05:51:28;9.00;;;1.80;;
14903;SDS011;7543;53.148;8.234;2023-03-25T05:53:59;4.23;;;1.60;;
14903;SDS011;7543;53.148;8.234;2023-03-25T05:56:27;6.67;;;1.90;;
14903;SDS011;7543;53.148;8.234;2023-03-25T05:58:56;5.87;;;2.00;;
14903;SDS011;7543;53.148;8.234;2023-03-25T06:01:24;4.60;;;1.77;;
14903;SDS011;7543;53.148;8.234;2023-03-25T06:03:53;3.63;;;1.90;;
14903;SDS011;7543;53.148;8.234;2023-03-25T06:06:24;4.57;;;1.87;;
14903;SDS011;7543;53.148;8.234;2023-03-25T06:08:53;5.83;;;1.77;;
14903;SDS011;7543;53.148;8.234;2023-03-25T06:11:21;4.67;;;1.73;;
14903;SDS011;7543;53.148;8.234;2023-03-25T06:13:49;5.53;;;1.90;;
14903;SDS011;7543;53.148;8.234;2023-03-25T06:16:19;2.97;;;1.60;;
14903;SDS011;7543;53.148;8.234;2023-03-25T06:18:48;3.07;;;1.57;;
14903;SDS011;7543;53.148;8.234;2023-03-25T06:21:22;3.80;;;2.13;;
14903;SDS011;7543;53.148;8.234;2023-03-25T06:23:52;5.67;;;1.90;;
14903;SDS011;7543;53.148;8.234;2023-03-25T06:26:21;4.47;;;2.03;;
14903;SDS011;7543;53.148;8.234;2023-03-25T06:28:50;5.47;;;1.80;;
14903;SDS011;7543;53.148;8.234;2023-03-25T06:31:19;7.57;;;1.60;;
14903;SDS011;7543;53.148;8.234;2023-03-25T06:33:52;6.77;;;1.70;;
14903;SDS011;7543;53.148;8.234;2023-03-25T06:36:21;2.60;;;1.47;;
14903;SDS011;7543;53.148;8.234;2023-03-25T06:38:52;3.47;;;1.97;;
14903;SDS011;7543;53.148;8.234;2023-03-25T06:41:22;2.77;;;1.57;;
14903;SDS011;7543;53.148;8.234;2023-03-25T06:44:07;4.40;;;1.80;;
14903;SDS011;7543;53.148;8.234;2023-03-25T06:46:54;3.60;;;1.87;;
14903;SDS011;7543;53.148;8.234;2023-03-25T06:49:39;4.87;;;1.80;;
14903;SDS011;7543;53.148;8.234;2023-03-25T06:52:07;5.17;;;1.33;;
14903;SDS011;7543;53.148;8.234;2023-03-25T06:54:37;8.13;;;1.90;;
14903;SDS011;7543;53.148;8.234;2023-03-25T06:57:05;2.27;;;1.37;;
14903;SDS011;7543;53.148;8.234;2023-03-25T06:59:34;3.20;;;1.50;;
14903;SDS011;7543;53.148;8.234;2023-03-25T07:02:02;4.90;;;2.00;;
14903;SDS011;7543;53.148;8.234;2023-03-25T07:04:30;3.90;;;1.77;;
14903;SDS011;7543;53.148;8.234;2023-03-25T07:06:59;6.30;;;1.93;;
14903;SDS011;7543;53.148;8.234;2023-03-25T07:09:27;3.33;;;1.30;;
14903;SDS011;7543;53.148;8.234;2023-03-25T07:11:57;4.33;;;2.00;;
14903;SDS011;7543;53.148;8.234;2023-03-25T07:14:25;2.30;;;1.30;;
14903;SDS011;7543;53.148;8.234;2023-03-25T07:16:53;6.40;;;1.30;;
14903;SDS011;7543;53.148;8.234;2023-03-25T07:19:22;7.90;;;1.67;;
14903;SDS011;7543;53.148;8.234;2023-03-25T07:21:50;3.83;;;1.80;;
14903;SDS011;7543;53.148;8.234;2023-03-25T07:24:18;6.03;;;1.33;;
14903;SDS011;7543;53.148;8.234;2023-03-25T07:26:49;4.73;;;1.53;;
14903;SDS011;7543;53.148;8.234;2023-03-25T07:29:23;4.67;;;1.67;;
14903;SDS011;7543;53.148;8.234;2023-03-25T07:31:51;4.10;;;1.10;;
14903;SDS011;7543;53.148;8.234;2023-03-25T07:34:20;2.50;;;1.17;;
14903;SDS011;7543;53.148;8.234;2023-03-25T07:36:48;2.90;;;1.00;;
14903;SDS011;7543;53.148;8.234;2023-03-25T07:39:16;4.87;;;1.00;;
14903;SDS011;7543;53.148;8.234;2023-03-25T07:41:45;1.50;;;0.80;;
14903;SDS011;7543;53.148;8.234;2023-03-25T07:44:32;3.03;;;1.17;;
14903;SDS011;7543;53.148;8.234;2023-03-25T07:47:01;1.97;;;1.10;;
14903;SDS011;7543;53.148;8.234;2023-03-25T07:49:29;1.83;;;0.90;;
14903;SDS011;7543;53.148;8.234;2023-03-25T07:51:57;3.83;;;1.00;;
14903;SDS011;7543;53.148;8.234;2023-03-25T07:54:26;3.20;;;0.73;;
14903;SDS011;7543;53.148;8.234;2023-03-25T07:56:54;2.67;;;0.97;;
14903;SDS011;7543;53.148;8.234;2023-03-25T07:59:23;3.27;;;0.70;;
14903;SDS011;7543;53.148;8.234;2023-03-25T08:01:53;1.87;;;0.80;;
14903;SDS011;7543;53.148;8.234;2023-03-25T08:04:21;3.43;;;0.63;;
14903;SDS011;7543;53.148;8.234;2023-03-25T08:06:50;2.80;;;0.60;;
14903;SDS011;7543;53.148;8.234;2023-03-25T08:09:18;1.60;;;0.60;;
14903;SDS011;7543;53.148;8.234;2023-03-25T08:11:46;2.77;;;1.00;;
14903;SDS011;7543;53.148;8.234;2023-03-25T08:14:17;4.23;;;0.90;;
14903;SDS011;7543;53.148;8.234;2023-03-25T08:16:45;1.60;;;0.90;;
14903;SDS011;7543;53.148;8.234;2023-03-25T08:19:15;1.73;;;0.80;;
14903;SDS011;7543;53.148;8.234;2023-03-25T08:21:43;2.60;;;1.10;;
14903;SDS011;7543;53.148;8.234;2023-03-25T08:24:11;1.50;;;0.90;;
14903;SDS011;7543;53.148;8.234;2023-03-25T08:26:40;3.40;;;1.00;;
14903;SDS011;7543;53.148;8.234;2023-03-25T08:29:09;2.67;;;1.10;;
14903;SDS011;7543;53.148;8.234;2023-03-25T08:31:37;5.20;;;1.27;;
14903;SDS011;7543;53.148;8.234;2023-03-25T08:34:06;4.43;;;1.37;;
14903;SDS011;7543;53.148;8.234;2023-03-25T08:36:35;5.60;;;1.53;;
14903;SDS011;7543;53.148;8.234;2023-03-25T08:39:05;6.17;;;1.57;;
14903;SDS011;7543;53.148;8.234;2023-03-25T08:41:37;2.60;;;1.17;;
14903;SDS011;7543;53.148;8.234;2023-03-25T08:44:05;9.80;;;1.73;;
14903;SDS011;7543;53.148;8.234;2023-03-25T08:46:34;5.77;;;1.30;;
14903;SDS011;7543;53.148;8.234;2023-03-25T08:49:03;1.13;;;0.73;;
14903;SDS011;7543;53.148;8.234;2023-03-25T08:51:32;3.73;;;1.27;;
14903;SDS011;7543;53.148;8.234;2023-03-25T08:54:02;9.13;;;1.60;;
14903;SDS011;7543;53.148;8.234;2023-03-25T08:56:30;2.83;;;1.07;;
14903;SDS011;7543;53.148;8.234;2023-03-25T08:58:58;10.43;;;1.50;;
14903;SDS011;7543;53.148;8.234;2023-03-25T09:01:27;3.73;;;1.33;;
14903;SDS011;7543;53.148;8.234;2023-03-25T09:03:55;6.90;;;1.80;;
14903;SDS011;7543;53.148;8.234;2023-03-25T09:06:23;5.30;;;1.33;;
14903;SDS011;7543;53.148;8.234;2023-03-25T09:08:52;5.13;;;1.50;;
14903;SDS011;7543;53.148;8.234;2023-03-25T09:11:23;6.07;;;1.70;;
14903;SDS011;7543;53.148;8.234;2023-03-25T09:13:51;5.27;;;1.30;;
14903;SDS011;7543;53.148;8.234;2023-03-25T09:16:19;5.23;;;1.40;;
14903;SDS011;7543;53.148;8.234;2023-03-25T09:18:48;2.87;;;1.27;;
14903;SDS011;7543;53.148;8.234;2023-03-25T09:21:16;4.00;;;1.53;;
14903;SDS011;7543;53.148;8.234;2023-03-25T09:23:44;6.40;;;1.60;;
14903;SDS011;7543;53.148;8.234;2023-03-25T09:26:13;1.23;;;0.87;;
14903;SDS011;7543;53.148;8.234;2023-03-25T09:28:43;2.23;;;1.30;;
14903;SDS011;7543;53.148;8.234;2023-03-25T09:31:12;6.37;;;1.83;;
14903;SDS011;7543;53.148;8.234;2023-03-25T09:33:41;7.43;;;1.63;;
14903;SDS011;7543;53.148;8.234;2023-03-25T09:36:09;5.97;;;1.40;;
14903;SDS011;7543;53.148;8.234;2023-03-25T09:38:38;4.07;;;1.00;;
14903;SDS011;7543;53.148;8.234;2023-03-25T09:41:15;1.13;;;0.40;;
14903;SDS011;7543;53.148;8.234;2023-03-25T09:43:53;1.67;;;0.73;;
14903;SDS011;7543;53.148;8.234;2023-03-25T09:46:25;3.50;;;0.73;;
14903;SDS011;7543;53.148;8.234;2023-03-25T09:48:55;1.90;;;0.77;;
14903;SDS011;7543;53.148;8.234;2023-03-25T09:51:24;2.47;;;0.83;;
14903;SDS011;7543;53.148;8.234;2023-03-25T09:53:57;3.47;;;0.93;;
14903;SDS011;7543;53.148;8.234;2023-03-25T09:56:27;2.93;;;1.10;;
14903;SDS011;7543;53.148;8.234;2023-03-25T09:58:59;3.23;;;1.20;;
14903;SDS011;7543;53.148;8.234;2023-03-25T10:01:32;3.77;;;1.30;;
14903;SDS011;7543;53.148;8.234;2023-03-25T10:04:10;4.37;;;1.13;;
14903;SDS011;7543;53.148;8.234;2023-03-25T10:07:00;7.37;;;1.30;;
14903;SDS011;7543;53.148;8.234;2023-03-25T10:09:38;3.13;;;1.30;;
14903;SDS011;7543;53.148;8.234;2023-03-25T10:12:23;3.40;;;1.33;;
14903;SDS011;7543;53.148;8.234;2023-03-25T10:15:00;3.40;;;0.87;;
14903;SDS011;7543;53.148;8.234;2023-03-25T10:17:34;4.00;;;1.43;;
14903;SDS011;7543;53.148;8.234;2023-03-25T10:20:06;11.07;;;1.73;;
14903;SDS011;7543;53.148;8.234;2023-03-25T10:22:41;3.00;;;1.30;;
14903;SDS011;7543;53.148;8.234;2023-03-25T10:25:19;4.63;;;0.93;;
14903;SDS011;7543;53.148;8.234;2023-03-25T10:27:50;8.23;;;1.23;;
14903;SDS011;7543;53.148;8.234;2023-03-25T10:30:21;6.70;;;1.33;;
14903;SDS011;7543;53.148;8.234;2023-03-25T10:32:50;7.43;;;1.33;;
14903;SDS011;7543;53.148;8.234;2023-03-25T10:35:21;2.57;;;1.40;;
14903;SDS011;7543;53.148;8.234;2023-03-25T10:37:52;6.87;;;1.53;;
14903;SDS011;7543;53.148;8.234;2023-03-25T10:40:24;4.13;;;1.20;;
14903;SDS011;7543;53.148;8.234;2023-03-25T10:43:02;5.10;;;1.77;;
14903;SDS011;7543;53.148;8.234;2023-03-25T10:45:40;3.93;;;1.60;;
14903;SDS011;7543;53.148;8.234;2023-03-25T10:48:10;6.67;;;1.47;;
14903;SDS011;7543;53.148;8.234;2023-03-25T10:50:40;3.77;;;1.20;;
14903;SDS011;7543;53.148;8.234;2023-03-25T10:53:12;2.70;;;1.23;;
14903;SDS011;7543;53.148;8.234;2023-03-25T10:55:46;2.07;;;1.20;;
14903;SDS011;7543;53.148;8.234;2023-03-25T10:58:18;3.37;;;1.10;;
14903;SDS011;7543;53.148;8.234;2023-03-25T11:00:48;5.23;;;1.20;;
14903;SDS011;7543;53.148;8.234;2023-03-25T11:03:18;2.97;;;1.23;;
14903;SDS011;7543;53.148;8.234;2023-03-25T11:05:48;7.37;;;1.20;;
14903;SDS011;7543;53.148;8.234;2023-03-25T11:08:16;4.30;;;1.13;;
14903;SDS011;7543;53.148;8.234;2023-03-25T11:10:47;3.40;;;1.13;;
14903;SDS011;7543;53.148;8.234;2023-03-25T11:13:17;5.93;;;1.50;;
14903;SDS011;7543;53.148;8.234;2023-03-25T11:15:49;5.13;;;1.17;;
14903;SDS011;7543;53.148;8.234;2023-03-25T11:18:20;5.83;;;1.33;;
14903;SDS011;7543;53.148;8.234;2023-03-25T11:20:52;5.13;;;1.40;;
14903;SDS011;7543;53.148;8.234;2023-03-25T11:23:24;4.10;;;1.50;;
14903;SDS011;7543;53.148;8.234;2023-03-25T11:26:00;7.53;;;1.50;;
14903;SDS011;7543;53.148;8.234;2023-03-25T11:28:32;3.10;;;1.47;;
14903;SDS011;7543;53.148;8.234;2023-03-25T11:31:06;7.07;;;1.60;;
14903;SDS011;7543;53.148;8.234;2023-03-25T11:33:43;5.50;;;1.50;;
14903;SDS011;7543;53.148;8.234;2023-03-25T11:36:19;3.07;;;1.00;;
14903;SDS011;7543;53.148;8.234;2023-03-25T11:38:51;4.00;;;0.67;;
14903;SDS011;7543;53.148;8.234;2023-03-25T11:41:20;1.73;;;0.60;;
14903;SDS011;7543;53.148;8.234;2023-03-25T11:43:49;4.50;;;1.00;;
14903;SDS011;7543;53.148;8.234;2023-03-25T11:46:19;3.33;;;1.00;;
14903;SDS011;7543;53.148;8.234;2023-03-25T11:48:48;5.20;;;1.50;;
14903;SDS011;7543;53.148;8.234;2023-03-25T11:51:18;2.60;;;1.10;;
14903;SDS011;7543;53.148;8.234;2023-03-25T11:53:48;5.93;;;1.70;;
14903;SDS011;7543;53.148;8.234;2023-03-25T11:56:21;8.67;;;1.70;;
14903;SDS011;7543;53.148;8.234;2023-03-25T11:58:51;3.97;;;1.30;;
14903;SDS011;7543;53.148;8.234;2023-03-25T12:01:27;3.93;;;1.10;;
14903;SDS011;7543;53.148;8.234;2023-03-25T12:04:09;6.00;;;1.30;;
14903;SDS011;7543;53.148;8.234;2023-03-25T12:06:54;4.03;;;1.00;;
14903;SDS011;7543;53.148;8.234;2023-03-25T12:09:24;2.40;;;1.10;;
14903;SDS011;7543;53.148;8.234;2023-03-25T12:12:02;4.10;;;1.07;;
14903;SDS011;7543;53.148;8.234;2023-03-25T12:14:46;3.03;;;1.00;;
14903;SDS011;7543;53.148;8.234;2023-03-25T12:17:24;2.93;;;1.00;;
14903;SDS011;7543;53.148;8.234;2023-03-25T12:20:02;10.60;;;1.43;;
14903;SDS011;7543;53.148;8.234;2023-03-25T12:22:43;3.30;;;1.07;;
14903;SDS011;7543;53.148;8.234;2023-03-25T12:25:21;6.53;;;0.90;;
14903;SDS011;7543;53.148;8.234;2023-03-25T12:27:58;1.23;;;0.50;;
14903;SDS011;7543;53.148;8.234;2023-03-25T12:30:39;5.40;;;1.10;;
14903;SDS011;7543;53.148;8.234;2023-03-25T12:33:20;4.37;;;1.30;;
14903;SDS011;7543;53.148;8.234;2023-03-25T12:36:00;1.90;;;1.37;;
14903;SDS011;7543;53.148;8.234;2023-03-25T12:38:42;7.00;;;1.50;;
14903;SDS011;7543;53.148;8.234;2023-03-25T12:41:17;3.33;;;0.90;;
14903;SDS011;7543;53.148;8.234;2023-03-25T12:46:40;4.50;;;1.23;;
14903;SDS011;7543;53.148;8.234;2023-03-25T12:49:25;5.07;;;1.17;;
14903;SDS011;7543;53.148;8.234;2023-03-25T12:52:03;3.07;;;1.10;;
14903;SDS011;7543;53.148;8.234;2023-03-25T12:54:41;3.53;;;0.80;;
14903;SDS011;7543;53.148;8.234;2023-03-25T12:57:36;2.73;;;0.80;;
14903;SDS011;7543;53.148;8.234;2023-03-25T13:00:16;0.80;;;0.63;;
14903;SDS011;7543;53.148;8.234;2023-03-25T13:03:07;4.13;;;0.60;;
14903;SDS011;7543;53.148;8.234;2023-03-25T13:06:05;3.23;;;1.20;;
14903;SDS011;7543;53.148;8.234;2023-03-25T13:08:41;5.77;;;1.47;;
14903;SDS011;7543;53.148;8.234;2023-03-25T13:11:14;5.00;;;1.27;;
14903;SDS011;7543;53.148;8.234;2023-03-25T13:13:44;5.70;;;1.37;;
14903;SDS011;7543;53.148;8.234;2023-03-25T13:16:14;6.83;;;1.20;;
14903;SDS011;7543;53.148;8.234;2023-03-25T13:18:45;5.80;;;1.43;;
14903;SDS011;7543;53.148;8.234;2023-03-25T13:21:18;4.20;;;1.30;;
14903;SDS011;7543;53.148;8.234;2023-03-25T13:23:51;5.87;;;1.23;;
14903;SDS011;7543;53.148;8.234;2023-03-25T13:26:22;5.33;;;1.20;;
14903;SDS011;7543;53.148;8.234;2023-03-25T13:28:52;3.00;;;0.97;;
14903;SDS011;7543;53.148;8.234;2023-03-25T13:31:25;3.17;;;0.80;;
14903;SDS011;7543;53.148;8.234;2023-03-25T13:33:55;2.97;;;0.87;;
14903;SDS011;7543;53.148;8.234;2023-03-25T13:36:35;2.87;;;0.70;;
14903;SDS011;7543;53.148;8.234;2023-03-25T13:39:05;2.43;;;0.90;;
14903;SDS011;7543;53.148;8.234;2023-03-25T13:41:40;1.30;;;0.63;;
14903;SDS011;7543;53.148;8.234;2023-03-25T13:44:10;3.67;;;1.00;;
14903;SDS011;7543;53.148;8.234;2023-03-25T13:46:41;4.80;;;1.47;;
14903;SDS011;7543;53.148;8.234;2023-03-25T13:49:12;3.37;;;0.93;;
14903;SDS011;7543;53.148;8.234;2023-03-25T13:51:45;4.73;;;0.90;;
14903;SDS011;7543;53.148;8.234;2023-03-25T13:54:15;7.83;;;1.33;;
14903;SDS011;7543;53.148;8.234;2023-03-25T13:57:03;3.30;;;0.83;;
14903;SDS011;7543;53.148;8.234;2023-03-25T13:59:55;3.70;;;0.63;;
14903;SDS011;7543;53.148;8.234;2023-03-25T14:02:42;6.83;;;1.00;;
14903;SDS011;7543;53.148;8.234;2023-03-25T14:11:22;5.50;;;1.33;;
14903;SDS011;7543;53.148;8.234;2023-03-25T14:13:51;4.23;;;0.90;;
14903;SDS011;7543;53.148;8.234;2023-03-25T14:16:22;4.73;;;1.20;;
14903;SDS011;7543;53.148;8.234;2023-03-25T14:18:52;2.60;;;1.03;;
14903;SDS011;7543;53.148;8.234;2023-03-25T14:21:27;6.80;;;0.97;;
14903;SDS011;7543;53.148;8.234;2023-03-25T14:24:04;6.23;;;1.00;;
14903;SDS011;7543;53.148;8.234;2023-03-25T14:26:40;7.00;;;1.23;;
14903;SDS011;7543;53.148;8.234;2023-03-25T14:29:14;4.83;;;1.27;;
14903;SDS011;7543;53.148;8.234;2023-03-25T14:32:01;4.57;;;1.20;;
14903;SDS011;7543;53.148;8.234;2023-03-25T14:34:31;3.80;;;1.20;;
14903;SDS011;7543;53.148;8.234;2023-03-25T14:37:16;4.83;;;1.50;;
14903;SDS011;7543;53.148;8.234;2023-03-25T14:39:57;5.23;;;1.30;;
14903;SDS011;7543;53.148;8.234;2023-03-25T14:42:40;5.80;;;1.60;;
14903;SDS011;7543;53.148;8.234;2023-03-25T14:48:27;10.17;;;1.53;;
14903;SDS011;7543;53.148;8.234;2023-03-25T14:51:06;4.23;;;1.30;;
14903;SDS011;7543;53.148;8.234;2023-03-25T14:53:36;4.33;;;1.03;;
14903;SDS011;7543;53.148;8.234;2023-03-25T14:56:05;7.37;;;1.33;;
14903;SDS011;7543;53.148;8.234;2023-03-25T14:58:37;3.57;;;1.07;;
14903;SDS011;7543;53.148;8.234;2023-03-25T15:01:08;5.87;;;1.20;;
14903;SDS011;7543;53.148;8.234;2023-03-25T15:03:39;3.13;;;1.13;;
14903;SDS011;7543;53.148;8.234;2023-03-25T15:06:15;6.10;;;1.50;;
14903;SDS011;7543;53.148;8.234;2023-03-25T15:08:49;8.77;;;1.60;;
14903;SDS011;7543;53.148;8.234;2023-03-25T15:11:24;2.73;;;1.00;;
14903;SDS011;7543;53.148;8.234;2023-03-25T15:13:55;6.13;;;1.40;;
14903;SDS011;7543;53.148;8.234;2023-03-25T15:16:27;4.30;;;1.20;;
14903;SDS011;7543;53.148;8.234;2023-03-25T15:19:04;3.33;;;1.00;;
14903;SDS011;7543;53.148;8.234;2023-03-25T15:24:40;5.70;;;1.10;;
14903;SDS011;7543;53.148;8.234;2023-03-25T15:27:12;6.13;;;1.57;;
14903;SDS011;7543;53.148;8.234;2023-03-25T15:29:54;7.03;;;1.50;;
14903;SDS011;7543;53.148;8.234;2023-03-25T15:32:33;5.03;;;1.20;;
14903;SDS011;7543;53.148;8.234;2023-03-25T15:41:14;3.50;;;1.10;;
14903;SDS011;7543;53.148;8.234;2023-03-25T15:44:00;2.33;;;0.70;;
14903;SDS011;7543;53.148;8.234;2023-03-25T15:46:47;2.13;;;0.50;;
14903;SDS011;7543;53.148;8.234;2023-03-25T15:52:33;0.73;;;0.43;;
14903;SDS011;7543;53.148;8.234;2023-03-25T15:55:11;0.30;;;0.30;;
14903;SDS011;7543;53.148;8.234;2023-03-25T15:57:41;1.53;;;0.40;;
14903;SDS011;7543;53.148;8.234;2023-03-25T16:00:12;0.33;;;0.30;;